createdAt,value
2019-05-25T00:00:52.957Z,12.10
2019-05-25T00:03:24.311Z,12.00
2019-05-25T00:05:55.617Z,12.00
2019-05-25T00:08:26.948Z,11.90
2019-05-25T00:10:58.344Z,11.80
2019-05-25T00:13:29.671Z,11.80
2019-05-25T00:16:01.009Z,11.70
2019-05-25T00:18:32.334Z,11.70
2019-05-25T00:21:03.815Z,11.60
2019-05-25T00:23:35.150Z,11.50
2019-05-25T00:26:06.558Z,11.50
2019-05-25T00:28:38.980Z,11.40
2019-05-25T00:31:12.057Z,11.40
2019-05-25T00:33:43.458Z,11.30
2019-05-25T00:36:17.879Z,11.30
2019-05-25T00:38:49.214Z,11.20
2019-05-25T00:41:20.579Z,11.20
2019-05-25T00:43:51.923Z,11.20
2019-05-25T00:46:23.248Z,11.10
2019-05-25T00:48:54.597Z,11.00
2019-05-25T00:51:25.955Z,11.00
2019-05-25T00:53:57.272Z,11.00
2019-05-25T00:56:28.676Z,10.90
2019-05-25T00:58:59.968Z,10.90
2019-05-25T01:01:31.313Z,10.80
2019-05-25T01:04:02.688Z,10.80
2019-05-25T01:06:34.253Z,10.70
2019-05-25T01:09:07.191Z,10.70
2019-05-25T01:11:38.629Z,10.60
2019-05-25T01:14:09.990Z,10.60
2019-05-25T01:16:41.428Z,10.60
2019-05-25T01:19:12.683Z,10.50
2019-05-25T01:21:45.140Z,10.50
2019-05-25T01:24:16.521Z,10.50
2019-05-25T01:26:47.852Z,10.50
2019-05-25T01:29:19.135Z,10.40
2019-05-25T01:31:50.571Z,10.40
2019-05-25T01:34:21.934Z,10.30
2019-05-25T01:36:53.320Z,10.30
2019-05-25T01:39:24.671Z,10.30
2019-05-25T01:41:56.014Z,10.30
2019-05-25T01:44:27.445Z,10.30
2019-05-25T01:46:58.789Z,10.20
2019-05-25T01:49:30.142Z,10.20
2019-05-25T01:52:01.499Z,10.20
2019-05-25T01:54:32.923Z,10.20
2019-05-25T01:57:04.341Z,10.20
2019-05-25T01:59:35.732Z,10.10
2019-05-25T02:02:07.113Z,10.10
2019-05-25T02:04:38.427Z,10.10
2019-05-25T02:07:09.785Z,10.10
2019-05-25T02:09:41.084Z,10.00
2019-05-25T02:12:12.462Z,10.00
2019-05-25T02:14:43.779Z,9.90
2019-05-25T02:17:16.094Z,9.90
2019-05-25T02:19:47.444Z,9.90
2019-05-25T02:22:18.815Z,9.90
2019-05-25T02:24:50.143Z,9.90
2019-05-25T02:27:21.500Z,9.90
2019-05-25T02:29:52.881Z,9.90
2019-05-25T02:32:24.232Z,9.80
2019-05-25T02:34:55.582Z,9.80
2019-05-25T02:37:26.890Z,9.80
2019-05-25T02:39:58.203Z,9.90
2019-05-25T02:42:29.559Z,9.90
2019-05-25T02:45:02.523Z,9.90
2019-05-25T02:47:33.876Z,9.90
2019-05-25T02:50:08.539Z,10.00
2019-05-25T02:52:39.902Z,10.00
2019-05-25T02:55:13.281Z,10.10
2019-05-25T02:57:44.591Z,10.10
2019-05-25T03:00:16.249Z,10.10
2019-05-25T03:02:48.053Z,10.20
2019-05-25T03:05:19.571Z,10.20
2019-05-25T03:07:51.884Z,10.20
2019-05-25T03:10:23.241Z,10.20
2019-05-25T03:12:56.288Z,10.20
2019-05-25T03:15:27.642Z,10.20
2019-05-25T03:17:58.987Z,10.30
2019-05-25T03:20:30.764Z,10.30
2019-05-25T03:23:02.746Z,10.30
2019-05-25T03:25:48.539Z,10.20
2019-05-25T03:28:07.072Z,10.20
2019-05-25T03:30:39.059Z,10.20
2019-05-25T03:33:10.359Z,10.20
2019-05-25T03:35:41.792Z,10.10
2019-05-25T03:38:14.113Z,10.10
2019-05-25T03:40:45.458Z,10.10
2019-05-25T03:43:16.811Z,10.10
2019-05-25T03:45:48.129Z,10.10
2019-05-25T03:48:19.494Z,10.10
2019-05-25T03:50:50.802Z,10.10
2019-05-25T03:53:22.178Z,10.20
2019-05-25T03:56:05.166Z,10.20
2019-05-25T03:58:27.540Z,10.20
2019-05-25T04:00:58.852Z,10.30
2019-05-25T04:03:30.219Z,10.40
2019-05-25T04:06:01.611Z,10.40
2019-05-25T04:08:32.957Z,10.50
2019-05-25T04:11:04.269Z,10.60
2019-05-25T04:13:35.624Z,10.80
2019-05-25T04:16:07.107Z,10.90
2019-05-25T04:18:38.472Z,11.00
2019-05-25T04:21:09.825Z,11.10
2019-05-25T04:23:41.224Z,11.20
2019-05-25T04:26:22.125Z,11.30
2019-05-25T04:28:45.718Z,11.50
2019-05-25T04:31:17.038Z,11.60
2019-05-25T04:33:48.412Z,11.70
2019-05-25T04:36:19.834Z,11.80
2019-05-25T04:38:51.203Z,11.90
2019-05-25T04:41:22.572Z,12.00
2019-05-25T04:43:53.930Z,12.00
2019-05-25T04:46:25.274Z,12.10
2019-05-25T04:48:56.686Z,12.20
2019-05-25T04:51:28.031Z,12.30
2019-05-25T04:53:59.391Z,12.40
2019-05-25T04:56:39.710Z,12.50
2019-05-25T04:59:03.813Z,12.70
2019-05-25T05:01:35.154Z,12.80
2019-05-25T05:04:06.558Z,12.90
2019-05-25T05:06:37.902Z,13.00
2019-05-25T05:09:09.434Z,13.10
2019-05-25T05:11:40.780Z,13.20
2019-05-25T05:14:12.149Z,13.40
2019-05-25T05:16:43.458Z,13.60
2019-05-25T05:19:14.818Z,13.90
2019-05-25T05:21:46.195Z,14.10
2019-05-25T05:24:19.294Z,14.30
2019-05-25T05:26:55.664Z,14.50
2019-05-25T05:29:23.777Z,14.70
2019-05-25T05:31:55.176Z,14.90
2019-05-25T05:34:26.577Z,15.00
2019-05-25T05:36:58.850Z,15.30
2019-05-25T05:39:31.097Z,15.50
2019-05-25T05:42:04.452Z,15.70
2019-05-25T05:44:39.165Z,15.80
2019-05-25T05:47:14.103Z,15.90
2019-05-25T05:49:52.596Z,16.00
2019-05-25T05:52:22.573Z,16.20
2019-05-25T05:54:56.832Z,16.30
2019-05-25T05:57:28.215Z,16.40
2019-05-25T05:59:59.545Z,16.60
2019-05-25T06:02:30.885Z,16.70
2019-05-25T06:05:03.072Z,16.80
2019-05-25T06:07:34.593Z,16.90
2019-05-25T06:10:07.922Z,17.20
2019-05-25T06:12:39.373Z,17.40
2019-05-25T06:15:10.964Z,17.70
2019-05-25T06:17:42.353Z,17.90
2019-05-25T06:20:14.588Z,18.10
2019-05-25T06:22:45.933Z,18.30
2019-05-25T06:25:18.398Z,18.40
2019-05-25T06:27:49.784Z,18.50
2019-05-25T06:30:23.472Z,18.60
2019-05-25T06:32:54.797Z,18.60
2019-05-25T06:35:26.109Z,18.80
2019-05-25T06:37:57.493Z,19.00
2019-05-25T06:40:28.829Z,19.30
2019-05-25T06:43:00.198Z,19.70
2019-05-25T06:45:31.500Z,19.90
2019-05-25T06:48:02.873Z,20.10
2019-05-25T06:50:34.234Z,20.50
2019-05-25T06:53:05.607Z,20.80
2019-05-25T06:55:36.964Z,21.10
2019-05-25T06:58:08.335Z,21.40
2019-05-25T07:00:39.643Z,21.80
2019-05-25T07:03:11.001Z,22.00
2019-05-25T07:05:42.330Z,22.20
2019-05-25T07:08:13.727Z,22.30
2019-05-25T07:10:45.008Z,22.20
2019-05-25T07:13:16.360Z,22.20
2019-05-25T07:15:47.703Z,22.30
2019-05-25T07:18:19.082Z,22.50
2019-05-25T07:20:53.493Z,22.70
2019-05-25T07:23:24.901Z,22.80
2019-05-25T07:25:56.221Z,22.80
2019-05-25T07:28:27.607Z,22.90
2019-05-25T07:30:58.915Z,22.80
2019-05-25T07:33:30.282Z,22.80
2019-05-25T07:36:01.586Z,22.70
2019-05-25T07:38:32.940Z,22.80
2019-05-25T07:41:04.262Z,22.90
2019-05-25T07:43:35.636Z,23.10
2019-05-25T07:46:06.987Z,23.50
2019-05-25T07:48:38.368Z,23.80
2019-05-25T07:51:09.703Z,24.00
2019-05-25T07:53:41.018Z,24.40
2019-05-25T07:56:12.584Z,24.90
2019-05-25T07:58:43.947Z,25.40
2019-05-25T08:01:15.367Z,25.50
2019-05-25T08:03:46.728Z,25.50
2019-05-25T08:06:18.092Z,25.40
2019-05-25T08:08:49.660Z,25.40
2019-05-25T08:11:20.994Z,25.30
2019-05-25T08:13:52.345Z,25.30
2019-05-25T08:16:25.954Z,25.40
2019-05-25T08:18:57.305Z,25.60
2019-05-25T08:21:28.640Z,25.80
2019-05-25T08:24:00.012Z,25.80
2019-05-25T08:26:31.437Z,25.70
2019-05-25T08:29:02.797Z,25.80
2019-05-25T08:31:34.135Z,25.90
2019-05-25T08:34:05.497Z,25.80
2019-05-25T08:36:39.824Z,26.00
2019-05-25T08:39:11.189Z,26.10
2019-05-25T08:41:45.468Z,26.00
2019-05-25T08:44:15.676Z,25.90
2019-05-25T08:46:47.006Z,25.90
2019-05-25T08:49:18.379Z,25.90
2019-05-25T08:51:49.722Z,25.90
2019-05-25T08:54:21.079Z,26.00
2019-05-25T08:56:52.412Z,26.20
2019-05-25T08:59:23.786Z,26.30
2019-05-25T09:01:55.144Z,26.60
2019-05-25T09:04:26.542Z,26.70
2019-05-25T09:06:58.980Z,26.80
2019-05-25T09:09:30.423Z,26.90
2019-05-25T09:12:02.443Z,26.90
2019-05-25T09:14:33.881Z,26.60
2019-05-25T09:17:06.218Z,26.60
2019-05-25T09:19:37.593Z,26.70
2019-05-25T09:22:08.932Z,27.10
2019-05-25T09:24:40.349Z,27.30
2019-05-25T09:27:11.696Z,27.20
2019-05-25T09:29:43.050Z,27.10
2019-05-25T09:32:15.357Z,27.30
2019-05-25T09:34:46.764Z,27.40
2019-05-25T09:37:18.099Z,27.50
2019-05-25T09:39:49.479Z,27.80
2019-05-25T09:42:21.994Z,27.90
2019-05-25T09:44:53.342Z,28.00
2019-05-25T09:47:24.671Z,28.20
2019-05-25T09:49:56.030Z,28.40
2019-05-25T09:52:27.409Z,28.60
2019-05-25T09:54:58.709Z,28.70
2019-05-25T09:57:30.108Z,28.80
2019-05-25T10:00:01.412Z,28.90
2019-05-25T10:02:32.789Z,28.90
2019-05-25T10:05:04.497Z,29.10
2019-05-25T10:07:35.793Z,29.50
2019-05-25T10:10:07.624Z,29.60
2019-05-25T10:12:39.030Z,29.80
2019-05-25T10:15:11.560Z,30.00
2019-05-25T10:17:42.984Z,29.90
2019-05-25T10:20:15.581Z,30.00
2019-05-25T10:22:46.957Z,29.80
2019-05-25T10:25:18.421Z,29.40
2019-05-25T10:27:49.881Z,29.10
2019-05-25T10:30:24.264Z,28.80
2019-05-25T10:32:55.858Z,28.90
2019-05-25T10:35:27.201Z,29.10
2019-05-25T10:37:58.542Z,29.50
2019-05-25T10:40:29.916Z,29.80
2019-05-25T10:43:01.278Z,30.20
2019-05-25T10:45:32.763Z,30.70
2019-05-25T10:48:04.135Z,30.60
2019-05-25T10:50:35.529Z,30.30
2019-05-25T10:53:06.921Z,29.90
2019-05-25T10:55:38.391Z,29.90
2019-05-25T10:58:09.731Z,30.20
2019-05-25T11:00:41.047Z,30.50
2019-05-25T11:03:12.429Z,30.80
2019-05-25T11:05:43.824Z,30.70
2019-05-25T11:08:15.174Z,30.50
2019-05-25T11:10:46.521Z,30.50
2019-05-25T11:13:17.921Z,30.60
2019-05-25T11:15:49.248Z,30.10
2019-05-25T11:18:20.569Z,29.60
2019-05-25T11:20:51.925Z,29.20
2019-05-25T11:23:23.273Z,28.40
2019-05-25T11:25:54.579Z,27.90
2019-05-25T11:28:25.900Z,27.80
2019-05-25T11:30:57.260Z,28.30
2019-05-25T11:33:28.580Z,29.20
2019-05-25T11:35:59.955Z,29.80
2019-05-25T11:38:32.385Z,30.40
2019-05-25T11:41:03.749Z,30.80
2019-05-25T11:43:35.212Z,31.10
2019-05-25T11:46:06.580Z,31.30
2019-05-25T11:48:37.932Z,31.50
2019-05-25T11:51:09.261Z,31.90
2019-05-25T11:53:40.626Z,32.00
2019-05-25T11:56:12.008Z,31.70
2019-05-25T11:58:47.306Z,32.00
2019-05-25T12:01:16.562Z,32.20
2019-05-25T12:03:47.975Z,32.50
2019-05-25T12:06:19.426Z,32.60
2019-05-25T12:08:50.798Z,32.70
2019-05-25T12:11:23.074Z,32.90
2019-05-25T12:13:54.482Z,33.00
2019-05-25T12:16:25.810Z,32.90
2019-05-25T12:18:57.193Z,33.10
2019-05-25T12:21:28.549Z,33.40
2019-05-25T12:23:59.913Z,33.70
2019-05-25T12:26:31.335Z,34.00
2019-05-25T12:29:02.725Z,34.20
2019-05-25T12:31:34.150Z,34.20
2019-05-25T12:34:05.563Z,34.50
2019-05-25T12:36:36.900Z,35.00
2019-05-25T12:39:08.914Z,34.80
2019-05-25T12:41:40.267Z,34.70
2019-05-25T12:44:11.628Z,34.50
2019-05-25T12:46:42.951Z,34.80
2019-05-25T12:49:14.353Z,35.20
2019-05-25T12:51:45.670Z,35.50
2019-05-25T12:54:17.063Z,35.90
2019-05-25T12:56:48.433Z,36.20
2019-05-25T12:59:19.794Z,36.60
2019-05-25T13:01:51.178Z,36.50
2019-05-25T13:04:22.552Z,35.80
2019-05-25T13:06:53.863Z,34.70
2019-05-25T13:09:25.433Z,33.80
2019-05-25T13:11:56.787Z,33.70
2019-05-25T13:14:28.179Z,34.00
2019-05-25T13:16:59.532Z,34.20
2019-05-25T13:19:30.908Z,34.60
2019-05-25T13:22:02.295Z,35.00
2019-05-25T13:24:33.682Z,35.50
2019-05-25T13:27:05.981Z,35.70
2019-05-25T13:29:37.363Z,35.50
2019-05-25T13:32:08.713Z,35.00
2019-05-25T13:34:41.358Z,34.40
2019-05-25T13:37:12.956Z,33.60
2019-05-25T13:39:47.484Z,33.20
2019-05-25T13:42:18.834Z,33.50
2019-05-25T13:44:50.188Z,34.10
2019-05-25T13:47:21.509Z,34.90
2019-05-25T13:49:52.920Z,35.40
2019-05-25T13:52:24.244Z,35.70
2019-05-25T13:54:55.598Z,34.40
2019-05-25T13:57:27.000Z,32.70
2019-05-25T13:59:58.375Z,31.10
2019-05-25T14:02:30.700Z,29.90
2019-05-25T14:05:02.066Z,28.90
2019-05-25T14:07:33.567Z,28.10
2019-05-25T14:10:07.345Z,27.50
2019-05-25T14:12:38.776Z,27.00
2019-05-25T14:15:10.717Z,26.70
2019-05-25T14:17:42.130Z,26.60
2019-05-25T14:20:13.904Z,26.60
2019-05-25T14:22:45.386Z,26.30
2019-05-25T14:25:16.911Z,25.90
2019-05-25T14:27:48.249Z,25.60
2019-05-25T14:30:21.222Z,25.30
2019-05-25T14:32:52.593Z,25.00
2019-05-25T14:35:23.985Z,24.80
2019-05-25T14:37:56.912Z,24.50
2019-05-25T14:40:28.403Z,24.30
2019-05-25T14:42:59.784Z,24.00
2019-05-25T14:45:31.190Z,23.80
2019-05-25T14:48:02.591Z,23.70
2019-05-25T14:50:34.001Z,23.60
2019-05-25T14:53:05.421Z,23.60
2019-05-25T14:55:36.828Z,23.40
2019-05-25T14:58:08.380Z,23.30
2019-05-25T15:00:39.813Z,23.30
2019-05-25T15:03:11.123Z,23.30
2019-05-25T15:05:45.569Z,23.20
2019-05-25T15:08:17.052Z,23.10
2019-05-25T15:10:48.444Z,23.00
2019-05-25T15:13:19.783Z,22.90
2019-05-25T15:15:51.108Z,22.70
2019-05-25T15:18:22.418Z,22.50
2019-05-25T15:20:54.799Z,22.20
2019-05-25T15:23:26.148Z,22.10
2019-05-25T15:25:57.465Z,21.90
2019-05-25T15:28:29.629Z,21.80
2019-05-25T15:31:01.015Z,21.60
2019-05-25T15:33:32.321Z,21.50
2019-05-25T15:36:03.726Z,21.30
2019-05-25T15:38:35.090Z,21.10
